EastWest Aircraft Sales has several offices across the USA. See map for information on the nearest airstrips.

Naples Municipal Airport

Available data for KAPF from the past 2 hours
NAPLES MUNICIPAL, FL
Metar
KAPF 152353Z 32008KT 10SM FEW019 30/26 A2993 RMK AO2 SLP132 T03000256 10322 20300 53008 $

23:53 UTC

Wind: 320° 8kt

Visibility: 10 SM

Sky: FEW 1900 ft

Temp: 30 deg C / 86 deg F

Dewpoint: 26 deg C / 78.8 deg F

Pressure: 29.93 inHg

TAF
KAPF 152333Z 1600/1624 29008KT P6SM SCT250 FM160200 VRB03KT P6SM SCT035 SCT250 FM161400 30008KT P6SM SCT030 SCT250

Hillsboro Airport

Available data for KHIO from the past 2 hours
HILLSBORO/PORTLD, OR
Metar
KHIO 160000Z 30004KT 10SM BKN012 OVC021 14/12 A2979 RMK AO2 T01440122

00:00 UTC

Wind: 300° 4kt

Visibility: 10 SM

Sky: BKN 1200 ft

Temp: 14 deg C / 57.2 deg F

Dewpoint: 12 deg C / 53.6 deg F

Pressure: 29.79 inHg

TAF
KHIO 152333Z 1600/1624 16006KT P6SM -SHRA SCT025 BKN035 OVC050 FM160300 16003KT P6SM VCSH SCT020 OVC040 FM161100 14002KT 6SM BR VCSH OVC025 FM161900 18007KT P6SM -SHRA SCT025 BKN040